KDAG/DAG METAR and TAF weather

Enter ICAO airport designator
Station Type Date Time Source
KDAG METAR 2022/10/01 06:50 UTC NOAA

KDAG 010650Z AUTO 28011KT 10SM CLR 24/03 A2982 RMK AO2 SLP073 T02390028


Station Type Date Time Source
KDAG Decoded METAR 2022/10/01 06:50 UTC NOAA

BARSTOW-DAGGETT AIRPORT, CA, United States (KDAG) 34-51N 116-47W 587M
Oct 01, 2022 - 02:50 AM EDT / 2022.10.01 0650 UTC
Wind: from the W (280 degrees) at 13 MPH (11 KT):0
Visibility: 10 mile(s):0
Sky conditions: clear
Temperature: 75.0 F (23.9 C)
Dew Point: 37.0 F (2.8 C)
Relative Humidity: 25%
Pressure (altimeter): 29.82 in. Hg (1009 hPa)
ob: KDAG 010650Z AUTO 28011KT 10SM CLR 24/03 A2982 RMK AO2 SLP073 T02390028
cycle: 7

Station Type Date Time Source
KDAG TAF 2022/10/01 06:22 UTC NOAA

TAF KDAG 010520Z 0106/0206 26010KT P6SM SKC
FM011400 28007KT P6SM SKC
FM011900 VRB06KT P6SM SKC
FM020100 25010KT P6SM SKC

Example: see airport list